Time;durP1;ratioP1;P1;durP2;ratioP2;P2;SDS_P1;SDS_P2;PMS_P1;PMS_P2;Temp;Humidity;BMP_temperature;BMP_pressure;BME280_temperature;BME280_humidity;BME280_pressure;Samples;Min_cycle;Max_cycle;Signal;HPM_P1;HPM_P2
2021/04/09 00:02:44;;;;;;;11.52;7.00;;;22.70;29.10;;;;;;6200265;28;81855;-65
2021/04/09 00:05:44;;;;;;;11.75;7.10;;;22.70;28.90;;;;;;6198601;28;81360;-64
2021/04/09 00:08:45;;;;;;;13.43;6.80;;;22.70;29.00;;;;;;6225027;28;80358;-65
2021/04/09 00:11:45;;;;;;;12.70;6.75;;;22.70;28.90;;;;;;6193991;28;81937;-65
2021/04/09 00:14:46;;;;;;;13.70;6.68;;;22.70;28.90;;;;;;6198924;28;81092;-64
2021/04/09 00:17:46;;;;;;;11.18;6.65;;;22.70;29.00;;;;;;6194801;28;80552;-64
2021/04/09 00:20:47;;;;;;;13.50;6.43;;;22.70;29.20;;;;;;6197784;28;82249;-64
2021/04/09 00:23:47;;;;;;;10.82;6.85;;;22.70;28.90;;;;;;6192263;27;84647;-66
2021/04/09 00:26:48;;;;;;;14.20;7.20;;;22.70;28.90;;;;;;6213917;28;81538;-65
2021/04/09 00:29:48;;;;;;;10.63;5.95;;;22.70;28.90;;;;;;6194820;27;80636;-65
2021/04/09 00:32:49;;;;;;;11.68;6.38;;;22.70;28.90;;;;;;6203975;28;80983;-65
2021/04/09 00:35:49;;;;;;;10.77;5.82;;;22.70;28.80;;;;;;6192650;28;80577;-66
2021/04/09 00:38:50;;;;;;;12.23;6.18;;;22.70;28.80;;;;;;6213783;28;80581;-66
2021/04/09 00:41:50;;;;;;;11.77;6.68;;;22.70;28.80;;;;;;6193765;28;80472;-65
2021/04/09 00:44:51;;;;;;;15.35;6.13;;;22.70;28.70;;;;;;6219378;28;80867;-64
2021/04/09 00:47:51;;;;;;;10.30;5.90;;;22.70;28.70;;;;;;6190429;28;81001;-65
2021/04/09 00:50:52;;;;;;;10.73;5.88;;;22.70;28.60;;;;;;6241012;27;83067;-66
2021/04/09 00:53:53;;;;;;;10.02;5.82;;;22.70;28.60;;;;;;6196472;28;82815;-65
2021/04/09 00:56:53;;;;;;;11.23;5.38;;;22.70;28.60;;;;;;6194988;28;81084;-65
2021/04/09 00:59:54;;;;;;;12.20;5.85;;;22.70;28.50;;;;;;6218467;27;81318;-65
2021/04/09 01:02:54;;;;;;;13.45;6.05;;;22.70;28.50;;;;;;6213072;28;81020;-65
2021/04/09 01:05:55;;;;;;;11.52;6.50;;;22.70;28.60;;;;;;6201022;28;80755;-65
2021/04/09 01:08:55;;;;;;;9.02;5.82;;;22.70;28.50;;;;;;6193768;28;81034;-65
2021/04/09 01:11:56;;;;;;;11.52;5.90;;;22.70;28.50;;;;;;6189350;28;80830;-65
2021/04/09 01:14:57;;;;;;;10.80;5.95;;;22.60;28.40;;;;;;6198335;28;81942;-65
2021/04/09 01:17:58;;;;;;;9.80;5.53;;;22.60;28.30;;;;;;6181635;28;80649;-65
2021/04/09 01:20:59;;;;;;;9.48;5.57;;;22.60;28.30;;;;;;6200074;28;80298;-65
2021/04/09 01:24:00;;;;;;;9.30;5.80;;;22.60;28.50;;;;;;6204009;28;80508;-66
2021/04/09 01:27:00;;;;;;;11.70;6.22;;;22.60;28.30;;;;;;6208693;28;80526;-65
2021/04/09 01:30:01;;;;;;;11.88;5.80;;;22.60;28.50;;;;;;6206226;27;80376;-65
2021/04/09 01:33:01;;;;;;;9.63;5.68;;;22.60;28.30;;;;;;6218985;27;80861;-65
2021/04/09 01:36:02;;;;;;;9.98;6.15;;;22.60;28.30;;;;;;6195573;28;81848;-65
2021/04/09 01:39:02;;;;;;;10.45;5.80;;;22.60;28.40;;;;;;6225713;27;80744;-64
2021/04/09 01:42:03;;;;;;;10.63;5.53;;;22.60;28.40;;;;;;6202435;28;81798;-64
2021/04/09 01:45:03;;;;;;;10.27;5.88;;;22.60;28.40;;;;;;6202173;28;80542;-65
2021/04/09 01:48:04;;;;;;;10.43;5.60;;;22.60;28.20;;;;;;6189843;28;81461;-65
2021/04/09 01:51:04;;;;;;;11.85;6.05;;;22.60;28.30;;;;;;6222827;28;81124;-64
2021/04/09 01:54:05;;;;;;;8.73;5.30;;;22.60;28.30;;;;;;6200592;27;80601;-64
2021/04/09 01:57:05;;;;;;;10.35;5.82;;;22.60;28.20;;;;;;6202992;28;81544;-64
2021/04/09 02:00:06;;;;;;;11.27;6.28;;;22.60;28.10;;;;;;6186873;28;81197;-64
2021/04/09 02:03:12;;;;;;;11.43;5.97;;;22.50;28.00;;;;;;6196134;28;80693;-65
2021/04/09 02:06:13;;;;;;;10.43;5.93;;;22.60;28.00;;;;;;6219943;28;80398;-65
2021/04/09 02:09:13;;;;;;;10.40;5.43;;;22.60;28.00;;;;;;6207589;28;81389;-65
2021/04/09 02:12:14;;;;;;;9.55;5.38;;;22.50;28.10;;;;;;6203948;27;82777;-65
2021/04/09 02:15:14;;;;;;;10.75;5.72;;;22.50;27.90;;;;;;6195401;28;81611;-65
2021/04/09 02:18:15;;;;;;;10.30;5.30;;;22.60;28.00;;;;;;6200233;28;87116;-64
2021/04/09 02:21:15;;;;;;;9.38;5.05;;;22.60;27.90;;;;;;6211399;27;81131;-64
2021/04/09 02:24:16;;;;;;;9.77;5.38;;;22.60;27.90;;;;;;6205626;27;80676;-64
2021/04/09 02:27:17;;;;;;;11.85;5.95;;;22.50;27.80;;;;;;6210319;27;81652;-64
2021/04/09 02:30:17;;;;;;;8.88;5.55;;;22.50;28.00;;;;;;6211299;28;81270;-64
2021/04/09 02:33:18;;;;;;;8.27;4.88;;;22.50;27.70;;;;;;6219108;28;80595;-65
2021/04/09 02:36:18;;;;;;;10.80;5.40;;;22.50;27.90;;;;;;6201213;28;80809;-65
2021/04/09 02:39:19;;;;;;;10.32;5.57;;;22.50;27.70;;;;;;6205305;28;80638;-65
2021/04/09 02:42:19;;;;;;;11.73;5.60;;;22.50;27.80;;;;;;6203274;27;81230;-65
2021/04/09 02:45:20;;;;;;;9.43;4.70;;;22.60;27.80;;;;;;6204769;28;80835;-65
2021/04/09 02:48:20;;;;;;;10.07;5.43;;;22.50;27.70;;;;;;6219145;27;83438;-65
2021/04/09 02:51:21;;;;;;;9.55;5.25;;;22.50;27.70;;;;;;6203160;28;80965;-65
2021/04/09 02:54:22;;;;;;;10.82;4.63;;;22.50;27.70;;;;;;6203744;28;81026;-64
2021/04/09 02:57:22;;;;;;;9.02;4.82;;;22.50;27.70;;;;;;6197194;28;80464;-64
2021/04/09 03:00:23;;;;;;;9.57;5.28;;;22.50;27.80;;;;;;6196101;28;81011;-65
2021/04/09 03:03:23;;;;;;;7.07;4.35;;;22.50;27.80;;;;;;6186187;28;80884;-65
2021/04/09 03:06:24;;;;;;;10.30;4.93;;;22.50;27.60;;;;;;6195324;28;81053;-65
2021/04/09 03:09:24;;;;;;;9.35;4.05;;;22.40;27.70;;;;;;6221575;27;81502;-65
2021/04/09 03:12:25;;;;;;;7.28;4.45;;;22.40;27.80;;;;;;6204866;28;84169;-64
2021/04/09 03:15:25;;;;;;;8.40;4.80;;;22.50;28.10;;;;;;6224564;27;81769;-65
2021/04/09 03:18:26;;;;;;;7.43;4.55;;;22.40;27.90;;;;;;6215711;28;80973;-63
2021/04/09 03:21:26;;;;;;;10.80;5.10;;;22.50;27.90;;;;;;6194961;28;81764;-64
2021/04/09 03:24:27;;;;;;;10.38;4.82;;;22.50;27.30;;;;;;6190241;28;80654;-64
2021/04/09 03:27:28;;;;;;;9.00;4.57;;;22.60;27.30;;;;;;6188376;28;80783;-64
2021/04/09 03:30:28;;;;;;;7.70;4.63;;;22.60;27.10;;;;;;6196666;28;80700;-64
2021/04/09 03:33:29;;;;;;;8.60;4.57;;;22.60;27.20;;;;;;6199069;28;81371;-63
2021/04/09 03:36:29;;;;;;;8.85;4.80;;;22.60;27.10;;;;;;6200069;28;83099;-64
2021/04/09 03:39:30;;;;;;;6.95;3.92;;;22.60;27.00;;;;;;6201336;28;80502;-65
2021/04/09 03:42:31;;;;;;;9.43;4.80;;;22.60;27.20;;;;;;6197729;28;81061;-64
2021/04/09 03:45:31;;;;;;;6.57;4.07;;;22.60;27.30;;;;;;6197753;27;80504;-64
2021/04/09 03:48:32;;;;;;;6.75;3.78;;;22.60;27.10;;;;;;6202989;28;80507;-65
2021/04/09 03:51:32;;;;;;;8.07;4.50;;;22.60;27.20;;;;;;6217318;27;83256;-65
2021/04/09 03:54:33;;;;;;;8.50;3.80;;;22.60;27.10;;;;;;6188022;28;80935;-65
2021/04/09 03:57:33;;;;;;;7.82;4.20;;;22.60;27.00;;;;;;6186686;28;81820;-65
2021/04/09 04:00:34;;;;;;;9.40;4.40;;;22.70;26.70;;;;;;6200246;28;81419;-65
2021/04/09 04:03:34;;;;;;;6.72;4.10;;;22.70;26.90;;;;;;6201069;28;80870;-64
2021/04/09 04:06:35;;;;;;;8.85;4.57;;;22.70;26.70;;;;;;6197068;28;82798;-66
2021/04/09 04:09:36;;;;;;;9.60;4.53;;;22.70;26.60;;;;;;6191837;28;80844;-63
2021/04/09 04:12:36;;;;;;;8.20;4.00;;;22.80;26.70;;;;;;6195472;28;80367;-64
2021/04/09 04:15:37;;;;;;;7.15;3.95;;;22.80;26.60;;;;;;6196164;28;81193;-64
2021/04/09 04:18:37;;;;;;;6.00;3.83;;;22.80;26.70;;;;;;6192844;28;81532;-64
2021/04/09 04:21:38;;;;;;;7.78;3.88;;;22.80;26.90;;;;;;6201870;28;81379;-65
2021/04/09 04:24:38;;;;;;;5.28;3.60;;;22.80;26.80;;;;;;6206203;28;80738;-66
2021/04/09 04:27:39;;;;;;;6.10;3.58;;;22.80;27.00;;;;;;6215049;27;80468;-67
2021/04/09 04:30:39;;;;;;;7.45;3.85;;;22.80;27.10;;;;;;6205699;28;80259;-66
2021/04/09 04:33:40;;;;;;;6.40;4.22;;;22.80;27.00;;;;;;6210032;28;80990;-66
2021/04/09 04:36:40;;;;;;;7.15;4.03;;;22.80;27.20;;;;;;6196346;27;80391;-67
2021/04/09 04:39:41;;;;;;;7.50;3.90;;;22.80;27.10;;;;;;6200349;28;81356;-67
2021/04/09 04:42:41;;;;;;;7.10;3.92;;;22.90;27.50;;;;;;6211599;27;83480;-66
2021/04/09 04:45:42;;;;;;;6.60;3.63;;;22.80;27.40;;;;;;6210201;28;81270;-66
2021/04/09 04:48:42;;;;;;;6.32;4.15;;;22.90;28.80;;;;;;6218053;28;81352;-66
2021/04/09 04:51:43;;;;;;;6.93;3.85;;;22.90;29.00;;;;;;6212782;28;80960;-66
2021/04/09 04:54:44;;;;;;;5.80;3.83;;;23.00;30.40;;;;;;6153572;28;81735;-66
2021/04/09 04:57:44;;;;;;;6.95;3.83;;;23.00;28.20;;;;;;6183342;28;80797;-66
2021/04/09 05:00:45;;;;;;;7.97;4.43;;;23.00;29.30;;;;;;6203109;28;89553;-67
2021/04/09 05:03:45;;;;;;;7.57;3.80;;;23.00;28.80;;;;;;6216139;27;83194;-66
2021/04/09 05:06:46;;;;;;;8.05;3.75;;;23.00;28.80;;;;;;6203234;28;81695;-66
2021/04/09 05:09:46;;;;;;;4.63;3.33;;;23.00;28.80;;;;;;6209095;28;80390;-65
2021/04/09 05:12:47;;;;;;;7.25;3.88;;;23.00;28.80;;;;;;6206207;28;80501;-67
2021/04/09 05:15:47;;;;;;;7.80;4.00;;;23.00;29.10;;;;;;6198853;28;82083;-66
2021/04/09 05:18:48;;;;;;;7.53;3.58;;;23.10;29.20;;;;;;6198254;28;81496;-66
2021/04/09 05:21:48;;;;;;;5.32;3.20;;;23.00;29.30;;;;;;6195891;28;81309;-67
2021/04/09 05:24:49;;;;;;;7.53;3.72;;;23.00;29.50;;;;;;6242927;28;80365;-67
2021/04/09 05:27:49;;;;;;;7.32;4.30;;;23.00;29.60;;;;;;6229539;28;80877;-67
2021/04/09 05:30:50;;;;;;;5.05;3.30;;;23.00;29.40;;;;;;6211526;27;81427;-66
2021/04/09 05:33:50;;;;;;;8.50;3.60;;;23.10;29.50;;;;;;6203964;28;80492;-67
2021/04/09 05:36:51;;;;;;;8.02;3.55;;;23.10;29.20;;;;;;6197913;27;80802;-67
2021/04/09 05:39:52;;;;;;;7.70;3.15;;;23.10;29.10;;;;;;6169418;28;80974;-66
2021/04/09 05:42:52;;;;;;;7.85;4.05;;;23.10;29.10;;;;;;6223514;28;80592;-67
2021/04/09 05:45:53;;;;;;;5.95;3.75;;;23.20;29.10;;;;;;6204112;28;80415;-66
2021/04/09 05:48:53;;;;;;;6.57;3.78;;;23.10;29.00;;;;;;6195107;28;81657;-65
2021/04/09 05:51:54;;;;;;;11.60;3.40;;;23.10;29.90;;;;;;6201685;28;80497;-67
2021/04/09 05:54:54;;;;;;;7.90;3.55;;;23.10;29.30;;;;;;6195749;28;81382;-69
2021/04/09 05:57:55;;;;;;;12.68;3.22;;;23.10;29.20;;;;;;6188166;28;80642;-68
2021/04/09 06:00:55;;;;;;;5.88;2.92;;;23.10;29.70;;;;;;6206405;28;80816;-67
2021/04/09 06:03:56;;;;;;;7.28;3.33;;;23.10;29.20;;;;;;6216749;28;93445;-68
2021/04/09 06:06:56;;;;;;;7.68;2.97;;;23.10;29.10;;;;;;6219348;28;81562;-68
2021/04/09 06:09:57;;;;;;;6.57;3.20;;;23.20;29.40;;;;;;6221893;28;80707;-67
2021/04/09 06:12:57;;;;;;;5.47;3.35;;;23.20;29.30;;;;;;6189078;28;80553;-67
2021/04/09 06:15:58;;;;;;;5.88;2.63;;;23.20;29.90;;;;;;6199688;28;81442;-67
2021/04/09 06:18:59;;;;;;;6.78;3.08;;;23.20;29.70;;;;;;6196869;28;81670;-68
2021/04/09 06:21:59;;;;;;;6.32;3.40;;;23.20;29.60;;;;;;6216690;28;81483;-68
2021/04/09 06:25:00;;;;;;;5.13;2.90;;;23.20;29.20;;;;;;6198295;28;81439;-68
2021/04/09 06:28:00;;;;;;;10.23;4.22;;;23.10;30.00;;;;;;6200685;28;80617;-68
2021/04/09 06:31:01;;;;;;;7.28;3.40;;;23.10;30.00;;;;;;6202297;28;80580;-66
2021/04/09 06:34:01;;;;;;;8.43;3.00;;;23.10;30.00;;;;;;6201635;28;81368;-66
2021/04/09 06:37:02;;;;;;;7.85;3.63;;;23.10;29.60;;;;;;6210843;28;81226;-67
2021/04/09 06:40:02;;;;;;;8.70;3.38;;;23.00;30.30;;;;;;6201030;27;80810;-67
2021/04/09 06:43:03;;;;;;;7.28;3.50;;;23.10;30.10;;;;;;6212391;28;81048;-68
2021/04/09 06:46:03;;;;;;;7.65;3.30;;;23.00;29.90;;;;;;6188899;28;80741;-68
2021/04/09 06:49:04;;;;;;;6.60;3.35;;;23.00;29.50;;;;;;6193896;28;80738;-68
2021/04/09 06:52:04;;;;;;;7.22;2.85;;;23.10;29.20;;;;;;6214099;28;80618;-69
2021/04/09 06:55:05;;;;;;;5.15;2.72;;;23.10;30.40;;;;;;6201478;28;80603;-68
2021/04/09 06:58:05;;;;;;;5.32;2.83;;;23.10;30.00;;;;;;6199366;28;80942;-69
2021/04/09 07:01:06;;;;;;;6.22;3.55;;;23.00;29.30;;;;;;6195168;28;80800;-67
2021/04/09 07:04:07;;;;;;;6.22;3.25;;;23.00;30.50;;;;;;6194929;28;81373;-67
2021/04/09 07:07:07;;;;;;;4.38;2.95;;;23.10;29.60;;;;;;6196692;28;81060;-68
2021/04/09 07:10:08;;;;;;;4.20;2.85;;;23.00;30.00;;;;;;6195066;28;82645;-69
2021/04/09 07:13:08;;;;;;;7.18;3.47;;;23.00;29.60;;;;;;6195059;28;81354;-69
2021/04/09 07:16:09;;;;;;;4.82;2.97;;;23.10;29.50;;;;;;6211182;28;80386;-68
2021/04/09 07:19:09;;;;;;;4.68;2.58;;;23.10;29.50;;;;;;6189538;28;82152;-69
2021/04/09 07:22:10;;;;;;;9.15;3.63;;;23.10;29.80;;;;;;6198610;28;81334;-69
2021/04/09 07:25:10;;;;;;;7.82;3.10;;;23.10;29.60;;;;;;6189585;28;80401;-69
2021/04/09 07:28:11;;;;;;;5.70;2.60;;;23.10;30.00;;;;;;6210622;28;80895;-69
2021/04/09 07:31:11;;;;;;;5.25;2.80;;;23.10;29.70;;;;;;6199179;28;80682;-68
2021/04/09 07:34:12;;;;;;;7.90;3.22;;;23.10;30.30;;;;;;6197852;28;81281;-69
2021/04/09 07:37:13;;;;;;;4.28;2.70;;;23.10;30.20;;;;;;6210440;28;80251;-68
2021/04/09 07:40:13;;;;;;;8.15;2.90;;;23.20;30.10;;;;;;6202959;28;81463;-68
2021/04/09 07:43:14;;;;;;;4.68;2.67;;;23.20;30.70;;;;;;6199453;28;80590;-68
2021/04/09 07:46:15;;;;;;;5.80;2.92;;;23.20;31.10;;;;;;6215147;28;80750;-65
2021/04/09 07:49:16;;;;;;;2.65;2.40;;;23.20;30.40;;;;;;6200554;28;80633;-67
2021/04/09 07:52:16;;;;;;;7.18;2.70;;;23.20;30.50;;;;;;6198802;28;81006;-67
2021/04/09 07:55:17;;;;;;;5.90;3.08;;;23.20;30.60;;;;;;6192328;28;80453;-72
2021/04/09 07:58:17;;;;;;;3.83;2.65;;;23.10;29.90;;;;;;6191746;28;80920;-67
2021/04/09 08:01:18;;;;;;;3.70;2.67;;;23.10;29.40;;;;;;6175712;28;81854;-67
2021/04/09 08:04:18;;;;;;;6.35;2.70;;;23.10;29.10;;;;;;6203262;28;80588;-67
2021/04/09 08:07:19;;;;;;;5.57;3.08;;;23.10;29.00;;;;;;6209398;28;81600;-67
2021/04/09 08:10:19;;;;;;;5.07;2.75;;;23.10;28.60;;;;;;6192419;28;81009;-70
2021/04/09 08:13:20;;;;;;;4.63;2.70;;;23.20;28.40;;;;;;6196700;28;82840;-69
2021/04/09 08:16:21;;;;;;;4.07;2.60;;;23.30;28.40;;;;;;6166006;28;81572;-69
2021/04/09 08:19:22;;;;;;;4.18;2.40;;;23.30;28.00;;;;;;6201610;28;80757;-68
2021/04/09 08:22:22;;;;;;;6.28;2.88;;;23.30;28.00;;;;;;6189948;28;81438;-68
2021/04/09 08:25:23;;;;;;;5.45;2.28;;;23.30;27.70;;;;;;6192947;28;80735;-68
2021/04/09 08:28:24;;;;;;;7.68;2.75;;;23.30;27.50;;;;;;6199121;28;83714;-69
2021/04/09 08:31:24;;;;;;;6.65;2.83;;;23.30;27.20;;;;;;6198351;28;81522;-68
2021/04/09 08:34:25;;;;;;;12.30;3.35;;;23.30;27.30;;;;;;6213568;28;81692;-68
2021/04/09 08:37:25;;;;;;;4.45;2.45;;;23.40;28.00;;;;;;6206265;28;80988;-69
2021/04/09 08:40:26;;;;;;;15.23;3.13;;;23.40;27.50;;;;;;6154370;28;80840;-68
2021/04/09 08:43:27;;;;;;;6.47;2.92;;;23.40;28.00;;;;;;6195528;28;81634;-69
2021/04/09 08:46:27;;;;;;;5.82;3.08;;;23.40;28.20;;;;;;6198427;28;80766;-69
2021/04/09 08:49:28;;;;;;;5.05;2.50;;;23.40;28.00;;;;;;6199506;28;80598;-69
2021/04/09 08:52:28;;;;;;;4.97;2.58;;;23.40;28.20;;;;;;6198179;28;80550;-68
2021/04/09 08:55:29;;;;;;;4.22;2.50;;;23.40;27.90;;;;;;6192421;28;80871;-69
2021/04/09 08:58:30;;;;;;;5.70;2.85;;;23.40;27.70;;;;;;6197638;28;80798;-69
2021/04/09 09:01:31;;;;;;;4.07;2.38;;;23.40;27.60;;;;;;6197605;28;80825;-68
2021/04/09 09:04:31;;;;;;;5.43;3.15;;;23.40;27.60;;;;;;6223984;28;82633;-69
2021/04/09 09:07:32;;;;;;;7.82;2.65;;;23.50;27.80;;;;;;6216852;28;80538;-67
2021/04/09 09:10:32;;;;;;;6.75;2.40;;;23.50;29.00;;;;;;6214529;28;81152;-70
2021/04/09 09:13:33;;;;;;;7.43;3.25;;;23.60;27.90;;;;;;6213519;28;81432;-68
2021/04/09 09:16:34;;;;;;;3.35;2.13;;;23.50;27.40;;;;;;6200362;28;80522;-69
2021/04/09 09:19:34;;;;;;;4.20;2.53;;;23.50;29.30;;;;;;6191926;28;81127;-69
2021/04/09 09:22:35;;;;;;;6.25;2.45;;;23.50;27.40;;;;;;6186663;28;80462;-66
2021/04/09 09:25:35;;;;;;;3.83;2.55;;;23.50;27.40;;;;;;6198373;28;82113;-68
2021/04/09 09:28:36;;;;;;;7.07;2.60;;;23.50;27.10;;;;;;6161216;28;80465;-67
2021/04/09 09:31:36;;;;;;;4.10;2.38;;;23.50;28.60;;;;;;6208944;27;81338;-67
2021/04/09 09:34:40;;;;;;;3.97;2.25;;;23.50;28.60;;;;;;6183414;28;80712;-67
2021/04/09 09:37:44;;;;;;;3.25;2.10;;;23.50;28.70;;;;;;6192718;28;81947;-68
2021/04/09 09:40:45;;;;;;;5.68;2.38;;;23.50;29.40;;;;;;6205485;28;81915;-67
2021/04/09 09:43:45;;;;;;;2.75;1.98;;;23.40;29.00;;;;;;6201420;28;80223;-68
2021/04/09 09:46:46;;;;;;;3.88;2.10;;;23.40;27.60;;;;;;6183026;27;81204;-68
2021/04/09 09:49:46;;;;;;;4.25;2.20;;;23.40;27.30;;;;;;6214365;28;80677;-68
2021/04/09 09:52:47;;;;;;;4.80;2.38;;;23.40;29.50;;;;;;6201667;28;80607;-66
2021/04/09 09:55:49;;;;;;;3.63;1.90;;;23.50;29.00;;;;;;6206370;28;81704;-67
2021/04/09 09:58:49;;;;;;;6.20;2.72;;;23.50;29.30;;;;;;6220522;28;90813;-67
2021/04/09 10:01:50;;;;;;;4.45;2.22;;;23.50;28.60;;;;;;6205819;28;80170;-67
2021/04/09 10:04:50;;;;;;;4.50;2.63;;;23.50;28.80;;;;;;6207935;28;80552;-67
2021/04/09 10:07:51;;;;;;;2.75;1.85;;;23.50;29.30;;;;;;6223054;27;81099;-65
2021/04/09 10:10:51;;;;;;;5.25;2.95;;;23.50;29.20;;;;;;6158555;27;81764;-66
2021/04/09 10:13:52;;;;;;;5.93;2.17;;;23.60;29.10;;;;;;6204623;28;82429;-65
2021/04/09 10:16:52;;;;;;;4.85;2.55;;;23.50;28.30;;;;;;6234671;27;82033;-65
2021/04/09 10:19:53;;;;;;;2.97;2.00;;;23.50;28.10;;;;;;6201072;28;80987;-66
2021/04/09 10:22:53;;;;;;;3.63;2.10;;;23.50;28.30;;;;;;6217347;28;81374;-67
2021/04/09 10:25:54;;;;;;;2.90;1.85;;;23.60;28.60;;;;;;6198935;28;80585;-68
2021/04/09 10:28:55;;;;;;;17.05;2.75;;;23.60;28.90;;;;;;6192170;28;81746;-66
2021/04/09 10:31:55;;;;;;;6.13;2.67;;;23.60;30.20;;;;;;6193221;28;80744;-68
2021/04/09 10:35:01;;;;;;;5.43;2.33;;;23.60;28.90;;;;;;6191318;28;80617;-67
2021/04/09 10:38:01;;;;;;;3.92;2.35;;;23.70;28.90;;;;;;6198194;28;80784;-66
2021/04/09 10:41:02;;;;;;;5.50;2.28;;;23.70;29.40;;;;;;6190129;28;81659;-67
2021/04/09 10:44:02;;;;;;;5.55;2.10;;;23.70;29.80;;;;;;6190359;28;81128;-67
2021/04/09 10:47:03;;;;;;;3.03;2.08;;;23.60;29.70;;;;;;6190324;28;80406;-67
2021/04/09 10:50:03;;;;;;;3.55;2.30;;;23.70;29.60;;;;;;6225080;28;81407;-68
2021/04/09 10:53:04;;;;;;;7.50;2.45;;;23.70;29.70;;;;;;6235698;28;83340;-68
2021/04/09 10:56:04;;;;;;;3.72;2.38;;;23.60;29.40;;;;;;6215263;28;81555;-68
2021/04/09 10:59:08;;;;;;;3.88;2.05;;;23.70;29.60;;;;;;6208737;28;82521;-68
2021/04/09 11:02:08;;;;;;;7.97;2.67;;;23.70;29.00;;;;;;6222184;28;80582;-68
2021/04/09 11:05:09;;;;;;;3.10;1.85;;;23.70;29.10;;;;;;6227556;28;80609;-68
2021/04/09 11:08:09;;;;;;;4.03;2.15;;;23.70;29.10;;;;;;6221116;28;80959;-70
2021/04/09 11:11:10;;;;;;;2.40;1.52;;;23.70;28.80;;;;;;6228069;28;80805;-68
2021/04/09 11:14:12;;;;;;;3.63;1.88;;;23.80;29.10;;;;;;6201324;28;80566;-67
2021/04/09 11:17:12;;;;;;;3.92;1.83;;;23.70;28.40;;;;;;6215680;28;81888;-67
2021/04/09 11:20:13;;;;;;;3.55;2.13;;;23.80;28.90;;;;;;6199817;28;83159;-67
2021/04/09 11:23:14;;;;;;;3.47;1.83;;;23.70;28.50;;;;;;6200504;28;81501;-68
2021/04/09 11:26:14;;;;;;;4.82;2.05;;;23.70;28.70;;;;;;6200069;28;80603;-67
2021/04/09 11:29:15;;;;;;;5.13;2.00;;;23.70;28.30;;;;;;6197208;28;80686;-66
2021/04/09 11:32:15;;;;;;;2.25;1.85;;;23.70;28.20;;;;;;6207851;28;80647;-67
2021/04/09 11:35:16;;;;;;;3.80;1.70;;;23.70;28.60;;;;;;6219371;28;80497;-66
2021/04/09 11:38:17;;;;;;;2.63;1.80;;;23.70;28.90;;;;;;6223595;27;81420;-65
2021/04/09 11:41:17;;;;;;;4.32;1.90;;;23.70;28.10;;;;;;6218032;28;80736;-62
2021/04/09 11:44:18;;;;;;;5.50;2.08;;;23.70;28.30;;;;;;6214862;27;82711;-65
2021/04/09 11:47:28;;;;;;;3.80;2.20;;;23.70;28.00;;;;;;6216061;27;82910;-65
2021/04/09 11:50:29;;;;;;;4.30;1.80;;;23.70;28.20;;;;;;6226141;28;80474;-63
2021/04/09 11:53:29;;;;;;;4.00;2.25;;;23.80;28.50;;;;;;6222030;28;80423;-64
2021/04/09 11:56:30;;;;;;;4.22;2.05;;;23.80;28.40;;;;;;6216353;27;80475;-64
2021/04/09 11:59:30;;;;;;;4.35;2.00;;;23.80;28.80;;;;;;6221250;28;80955;-65
2021/04/09 12:02:31;;;;;;;4.07;2.22;;;23.80;29.00;;;;;;6221335;27;80860;-65
2021/04/09 12:05:31;;;;;;;3.05;2.08;;;23.80;28.80;;;;;;6222762;28;81432;-65
2021/04/09 12:08:32;;;;;;;13.90;2.33;;;23.80;28.80;;;;;;6212400;27;83541;-64
2021/04/09 12:11:33;;;;;;;3.42;2.38;;;23.80;29.30;;;;;;6211552;27;80185;-64
2021/04/09 12:14:33;;;;;;;4.00;2.08;;;23.80;29.20;;;;;;6210100;27;80641;-63
2021/04/09 12:17:34;;;;;;;4.65;2.13;;;23.80;28.90;;;;;;6215472;27;83027;-63
2021/04/09 12:20:34;;;;;;;4.75;2.63;;;23.80;28.80;;;;;;6213155;27;82098;-66
2021/04/09 12:23:35;;;;;;;5.00;2.00;;;23.80;28.70;;;;;;6191953;28;81375;-64
2021/04/09 12:26:35;;;;;;;7.50;2.38;;;23.80;28.80;;;;;;6202424;28;80767;-64
2021/04/09 12:29:36;;;;;;;2.03;1.48;;;23.80;28.80;;;;;;6204206;28;81561;-65
2021/04/09 12:32:37;;;;;;;4.65;1.88;;;23.80;28.50;;;;;;6197815;28;92175;-65
2021/04/09 12:35:37;;;;;;;3.63;2.10;;;23.80;28.80;;;;;;6207181;28;80590;-65
2021/04/09 12:38:38;;;;;;;3.05;1.67;;;23.80;28.90;;;;;;6207664;28;81371;-65
2021/04/09 12:41:38;;;;;;;4.63;1.90;;;23.90;28.80;;;;;;6185545;28;80810;-65
2021/04/09 12:44:39;;;;;;;2.70;2.10;;;23.90;28.40;;;;;;6197684;28;80795;-65
2021/04/09 12:47:39;;;;;;;4.22;2.42;;;23.90;28.90;;;;;;6194256;28;80713;-66
2021/04/09 12:50:40;;;;;;;2.70;1.60;;;23.90;28.50;;;;;;6205922;27;80694;-66
2021/04/09 12:53:40;;;;;;;2.38;1.75;;;23.80;28.40;;;;;;6209171;27;81176;-65
2021/04/09 12:56:41;;;;;;;4.50;1.90;;;23.90;28.20;;;;;;6204224;28;81362;-66
2021/04/09 12:59:41;;;;;;;2.28;1.58;;;23.80;28.40;;;;;;6197536;28;80310;-66
2021/04/09 13:02:42;;;;;;;6.30;1.70;;;23.80;28.80;;;;;;6197064;28;80518;-65
2021/04/09 13:05:42;;;;;;;3.03;1.77;;;23.80;28.60;;;;;;6208597;28;80426;-66
2021/04/09 13:08:43;;;;;;;5.80;1.88;;;23.80;28.20;;;;;;6203527;28;80819;-65
2021/04/09 13:11:44;;;;;;;3.90;1.73;;;23.80;28.40;;;;;;6209637;27;81392;-66
2021/04/09 13:14:44;;;;;;;2.67;1.95;;;23.80;28.50;;;;;;6193695;27;80428;-66
2021/04/09 13:17:45;;;;;;;2.83;1.30;;;23.80;28.40;;;;;;6195695;27;80864;-65
2021/04/09 13:20:45;;;;;;;1.85;1.42;;;23.80;28.60;;;;;;6198701;28;80462;-66
2021/04/09 13:23:46;;;;;;;4.38;1.80;;;23.80;28.90;;;;;;6197979;28;82682;-66
2021/04/09 13:26:46;;;;;;;4.63;1.77;;;23.90;28.50;;;;;;6213806;27;81496;-66
2021/04/09 13:29:47;;;;;;;3.63;1.60;;;23.80;28.70;;;;;;6207962;28;81708;-65
2021/04/09 13:32:48;;;;;;;2.53;1.77;;;23.80;28.90;;;;;;6199488;28;80392;-64
2021/04/09 13:35:48;;;;;;;2.90;1.40;;;23.90;29.10;;;;;;6213399;27;81224;-65
2021/04/09 13:38:49;;;;;;;3.25;1.85;;;23.80;28.80;;;;;;6225183;27;84308;-64
2021/04/09 13:41:49;;;;;;;6.45;1.60;;;23.90;28.60;;;;;;6205262;28;80706;-64
2021/04/09 13:44:50;;;;;;;2.50;1.58;;;23.90;28.40;;;;;;6195000;28;80775;-65
2021/04/09 13:47:50;;;;;;;2.75;1.75;;;23.80;28.40;;;;;;6204760;28;80790;-65
2021/04/09 13:50:51;;;;;;;4.10;1.63;;;23.80;28.60;;;;;;6214442;28;80551;-66
2021/04/09 13:53:51;;;;;;;5.13;1.90;;;23.80;28.80;;;;;;6220199;28;82250;-66
2021/04/09 13:56:52;;;;;;;1.88;1.63;;;23.90;28.30;;;;;;6215784;27;83977;-66
2021/04/09 13:59:53;;;;;;;4.55;1.70;;;23.90;28.50;;;;;;6208783;27;81440;-65
2021/04/09 14:02:54;;;;;;;2.45;1.50;;;23.90;28.70;;;;;;6203172;28;80995;-66
2021/04/09 14:05:54;;;;;;;1.77;1.30;;;23.90;28.90;;;;;;6206594;27;81541;-66
2021/04/09 14:08:55;;;;;;;2.38;1.52;;;23.90;28.60;;;;;;6211275;28;80897;-66
2021/04/09 14:11:56;;;;;;;3.75;2.08;;;23.90;28.90;;;;;;6202487;27;81421;-67
2021/04/09 14:14:56;;;;;;;2.00;1.40;;;23.90;28.70;;;;;;6201366;28;80567;-66
2021/04/09 14:17:57;;;;;;;1.95;1.20;;;23.80;28.20;;;;;;6200123;28;81735;-66
2021/04/09 14:20:57;;;;;;;1.92;1.50;;;23.80;28.10;;;;;;6200883;27;80658;-66
2021/04/09 14:23:58;;;;;;;2.00;1.42;;;23.80;28.30;;;;;;6203136;28;80634;-67
2021/04/09 14:26:58;;;;;;;2.40;1.48;;;23.80;28.00;;;;;;6193339;27;81503;-67
2021/04/09 14:29:59;;;;;;;2.72;1.38;;;23.80;27.90;;;;;;6199123;28;80993;-66
2021/04/09 14:32:59;;;;;;;1.30;1.20;;;23.80;29.00;;;;;;6191856;28;80947;-67
2021/04/09 14:36:00;;;;;;;2.28;1.65;;;23.80;28.00;;;;;;6191654;28;80707;-67
2021/04/09 14:39:00;;;;;;;2.25;1.63;;;23.80;27.90;;;;;;6210466;28;80772;-67
2021/04/09 14:42:01;;;;;;;1.67;1.50;;;23.80;27.90;;;;;;6202981;28;80621;-67
2021/04/09 14:45:01;;;;;;;1.40;1.15;;;23.80;27.60;;;;;;6200453;28;81781;-66
2021/04/09 14:48:02;;;;;;;4.30;1.40;;;23.80;27.70;;;;;;6192773;28;83469;-68
2021/04/09 14:51:02;;;;;;;2.03;1.58;;;23.80;27.70;;;;;;6201349;28;80941;-67
2021/04/09 14:54:03;;;;;;;4.60;1.70;;;23.80;27.90;;;;;;6200882;28;81044;-67
2021/04/09 14:57:04;;;;;;;3.03;1.90;;;23.80;28.10;;;;;;6194224;28;80736;-66
2021/04/09 15:00:04;;;;;;;1.52;1.38;;;23.80;28.10;;;;;;6207783;28;83336;-68
2021/04/09 15:03:05;;;;;;;4.82;1.52;;;23.70;28.30;;;;;;6202063;28;81662;-66
2021/04/09 15:06:05;;;;;;;1.92;1.52;;;23.80;28.60;;;;;;6197515;28;81024;-69
2021/04/09 15:09:06;;;;;;;1.60;1.50;;;23.80;29.30;;;;;;6212314;27;80850;-68
2021/04/09 15:12:07;;;;;;;4.07;1.83;;;23.80;28.50;;;;;;6222751;27;85078;-67
2021/04/09 15:15:07;;;;;;;5.47;1.35;;;23.80;28.30;;;;;;6206518;27;81877;-69
2021/04/09 15:18:08;;;;;;;3.30;1.58;;;23.80;28.50;;;;;;6213658;28;80309;-67
2021/04/09 15:21:09;;;;;;;5.20;1.70;;;23.80;28.30;;;;;;6224389;28;80195;-67
2021/04/09 15:24:09;;;;;;;3.80;2.08;;;23.80;29.00;;;;;;6223329;28;80735;-66
2021/04/09 15:27:10;;;;;;;4.03;1.95;;;23.80;28.70;;;;;;6220372;27;81327;-66
2021/04/09 15:30:10;;;;;;;2.15;1.40;;;23.80;29.00;;;;;;6222288;27;81690;-66
2021/04/09 15:33:11;;;;;;;8.48;1.52;;;23.80;28.90;;;;;;6213679;28;80757;-66
2021/04/09 15:36:11;;;;;;;4.38;1.50;;;23.70;29.30;;;;;;6196775;28;80539;-65
2021/04/09 15:39:12;;;;;;;3.22;1.55;;;23.80;28.70;;;;;;6215957;27;83368;-66